Time;durP1;ratioP1;P1;durP2;ratioP2;P2;SDS_P1;SDS_P2;PMS_P1;PMS_P2;Temp;Humidity;BMP_temperature;BMP_pressure;BME280_temperature;BME280_humidity;BME280_pressure;Samples;Min_cycle;Max_cycle;Signal;HPM_P1;HPM_P2
2021/12/02 00:00:57;;;;;;;14.97;7.60;;;7.20;90.70;;;;;;4993006;28;20479;-72
2021/12/02 00:03:24;;;;;;;15.40;8.33;;;7.20;90.80;;;;;;4993120;28;20034;-72
2021/12/02 00:05:50;;;;;;;17.00;9.97;;;7.30;90.40;;;;;;4993203;28;20034;-72
2021/12/02 00:08:16;;;;;;;15.70;9.63;;;7.30;90.40;;;;;;4993304;28;20479;-72
2021/12/02 00:10:43;;;;;;;14.07;9.07;;;7.30;90.70;;;;;;4993073;28;20022;-72
2021/12/02 00:13:10;;;;;;;18.40;10.40;;;7.30;90.90;;;;;;4992871;28;20039;-72
2021/12/02 00:15:56;;;;;;;18.83;10.10;;;7.30;91.00;;;;;;4992967;28;20031;-72
2021/12/02 00:21:09;;;;;;;21.83;11.37;;;7.30;90.70;;;;;;4992997;28;20477;-72
2021/12/02 00:23:38;;;;;;;17.27;10.87;;;7.30;91.10;;;;;;4993280;28;20019;-72
2021/12/02 00:26:14;;;;;;;16.57;10.47;;;7.30;91.30;;;;;;4993208;28;20463;-72
2021/12/02 00:28:41;;;;;;;17.07;10.67;;;7.20;91.40;;;;;;4992805;28;20033;-72
2021/12/02 00:31:20;;;;;;;20.47;10.93;;;7.30;91.50;;;;;;4993042;28;20031;-72
2021/12/02 00:33:52;;;;;;;13.03;8.63;;;7.20;91.50;;;;;;4992994;28;20081;-72
2021/12/02 00:36:20;;;;;;;15.70;8.48;;;7.20;91.70;;;;;;4993175;28;20049;-72
2021/12/02 00:38:47;;;;;;;16.43;9.20;;;7.20;91.80;;;;;;4993056;28;20046;-72
2021/12/02 00:41:14;;;;;;;16.90;8.67;;;7.30;91.60;;;;;;4993012;28;20394;-72
2021/12/02 00:43:40;;;;;;;13.30;7.43;;;7.20;91.60;;;;;;4992918;28;20435;-72
2021/12/02 00:46:09;;;;;;;15.63;7.70;;;7.20;91.70;;;;;;4993014;28;20102;-72
2021/12/02 00:48:36;;;;;;;16.90;8.40;;;7.20;91.50;;;;;;4994628;28;20023;-71
2021/12/02 00:51:03;;;;;;;13.77;8.37;;;7.20;91.30;;;;;;4978875;28;20402;-72
2021/12/02 00:53:32;;;;;;;14.87;8.00;;;7.20;91.70;;;;;;4996344;28;20030;-72
2021/12/02 00:56:03;;;;;;;17.50;8.27;;;7.20;91.60;;;;;;4996204;28;20018;-72
2021/12/02 00:58:30;;;;;;;15.07;8.50;;;7.20;91.70;;;;;;4995236;28;20395;-72
2021/12/02 01:00:57;;;;;;;15.07;8.73;;;7.20;91.80;;;;;;4996510;28;20034;-72
2021/12/02 01:03:34;;;;;;;14.77;8.97;;;7.20;92.20;;;;;;4996474;28;20037;-72
2021/12/02 01:06:01;;;;;;;15.73;9.07;;;7.20;92.00;;;;;;4996486;28;20049;-72
2021/12/02 01:08:28;;;;;;;12.43;8.93;;;7.20;92.20;;;;;;4996150;28;20026;-72
2021/12/02 01:10:54;;;;;;;16.70;10.20;;;7.20;91.90;;;;;;4996402;28;20077;-72
2021/12/02 01:13:20;;;;;;;17.70;10.00;;;7.30;91.60;;;;;;4996248;28;20066;-72
2021/12/02 01:15:46;;;;;;;15.23;9.17;;;7.30;91.50;;;;;;4996449;28;20483;-72
2021/12/02 01:18:12;;;;;;;12.73;8.27;;;7.30;91.60;;;;;;4996250;28;20116;-73
2021/12/02 01:20:39;;;;;;;17.90;7.77;;;7.30;91.50;;;;;;4995947;28;20069;-72
2021/12/02 01:23:07;;;;;;;12.53;7.07;;;7.30;91.50;;;;;;4996043;28;20026;-73
2021/12/02 01:25:33;;;;;;;11.10;6.80;;;7.30;91.80;;;;;;4996079;28;20473;-72
2021/12/02 01:28:00;;;;;;;12.67;6.97;;;7.30;91.40;;;;;;4995746;28;20031;-72
2021/12/02 01:30:27;;;;;;;11.67;5.83;;;7.30;91.40;;;;;;4995737;28;20376;-72
2021/12/02 01:33:00;;;;;;;13.27;5.70;;;7.30;91.40;;;;;;4995575;28;20034;-72
2021/12/02 01:35:27;;;;;;;9.13;5.50;;;7.30;91.30;;;;;;4995737;28;20025;-72
2021/12/02 01:37:53;;;;;;;9.70;6.07;;;7.30;91.70;;;;;;4995847;28;20018;-72
2021/12/02 01:40:19;;;;;;;10.53;6.43;;;7.30;91.60;;;;;;4995787;28;20049;-72
2021/12/02 01:42:47;;;;;;;15.60;6.73;;;7.30;91.70;;;;;;4995775;28;20105;-72
2021/12/02 01:45:20;;;;;;;12.70;5.97;;;7.30;91.70;;;;;;4995480;28;20022;-72
2021/12/02 01:47:49;;;;;;;10.67;5.53;;;7.30;91.50;;;;;;4995431;28;20037;-72
2021/12/02 01:50:17;;;;;;;11.73;6.23;;;7.30;91.20;;;;;;4995608;28;20019;-72
2021/12/02 01:52:44;;;;;;;11.67;7.43;;;7.30;91.20;;;;;;4995407;28;20038;-72
2021/12/02 01:55:13;;;;;;;14.17;8.57;;;7.40;91.30;;;;;;4995453;28;20364;-72
2021/12/02 01:57:50;;;;;;;16.63;9.67;;;7.40;91.30;;;;;;4994596;28;20084;-72
2021/12/02 02:00:20;;;;;;;16.23;9.40;;;7.30;91.60;;;;;;4991240;28;20107;-72
2021/12/02 02:02:47;;;;;;;13.23;9.47;;;7.30;91.90;;;;;;4992366;28;20058;-72
2021/12/02 02:05:15;;;;;;;13.60;9.93;;;7.30;91.80;;;;;;4993880;28;20018;-72
2021/12/02 02:08:15;;;;;;;13.80;9.53;;;7.40;91.60;;;;;;4995157;28;20045;-72
2021/12/02 02:10:41;;;;;;;13.67;9.60;;;7.30;91.50;;;;;;4994949;28;20023;-72
2021/12/02 02:13:09;;;;;;;17.50;11.57;;;7.40;91.60;;;;;;4994744;28;20088;-72
2021/12/02 02:15:36;;;;;;;18.37;11.40;;;7.40;91.40;;;;;;5010086;28;20030;-72
2021/12/02 02:20:54;;;;;;;13.45;10.93;;;7.40;91.70;;;;;;4994634;28;20041;-72
2021/12/02 02:23:20;;;;;;;16.30;11.77;;;7.40;91.80;;;;;;4994911;28;20026;-72
2021/12/02 02:25:47;;;;;;;17.57;11.00;;;7.40;91.70;;;;;;4995069;28;20101;-72
2021/12/02 02:28:14;;;;;;;17.07;11.47;;;7.40;91.80;;;;;;4994814;28;20030;-72
2021/12/02 02:30:40;;;;;;;15.67;11.30;;;7.40;91.80;;;;;;4994803;28;20030;-72
2021/12/02 02:33:06;;;;;;;18.73;11.90;;;7.40;91.80;;;;;;4994357;28;20030;-72
2021/12/02 02:35:32;;;;;;;22.07;14.57;;;7.40;91.70;;;;;;4994445;28;20023;-72
2021/12/02 02:38:00;;;;;;;18.67;13.80;;;7.40;91.30;;;;;;4994955;28;20025;-73
2021/12/02 02:40:26;;;;;;;17.97;13.10;;;7.40;91.30;;;;;;4977087;28;20042;-72
2021/12/02 02:42:57;;;;;;;18.03;12.40;;;7.40;91.70;;;;;;4994282;28;20030;-72
2021/12/02 02:45:23;;;;;;;16.10;12.37;;;7.40;92.00;;;;;;4994409;28;20097;-72
2021/12/02 02:47:49;;;;;;;20.93;12.93;;;7.40;92.20;;;;;;4994458;28;20026;-72
2021/12/02 02:50:17;;;;;;;15.80;12.37;;;7.40;91.90;;;;;;4994134;28;20023;-72
2021/12/02 02:52:44;;;;;;;13.53;10.07;;;7.40;92.00;;;;;;4976980;28;20406;-72
2021/12/02 02:55:15;;;;;;;13.00;9.17;;;7.40;91.80;;;;;;4994408;28;20470;-72
2021/12/02 02:58:00;;;;;;;13.00;9.23;;;7.50;91.80;;;;;;4993894;28;20070;-72
2021/12/02 03:00:38;;;;;;;12.70;9.90;;;7.40;91.80;;;;;;4993828;28;20483;-72
2021/12/02 03:08:33;;;;;;;15.03;10.70;;;7.40;92.20;;;;;;4994020;28;20045;-72
2021/12/02 03:10:59;;;;;;;13.20;10.27;;;7.40;92.50;;;;;;4993918;28;20062;-72
2021/12/02 03:13:45;;;;;;;12.00;9.43;;;7.40;92.50;;;;;;4994375;28;20033;-71
2021/12/02 03:18:55;;;;;;;13.77;7.70;;;7.40;92.20;;;;;;4994431;28;20033;-72
2021/12/02 03:21:23;;;;;;;15.23;8.57;;;7.40;92.10;;;;;;4994276;28;20022;-72
2021/12/02 03:23:55;;;;;;;12.27;8.77;;;7.40;92.10;;;;;;4993893;28;20027;-72
2021/12/02 03:26:21;;;;;;;12.00;7.72;;;7.40;92.30;;;;;;4993816;28;20447;-72
2021/12/02 03:28:48;;;;;;;11.67;8.23;;;7.40;92.30;;;;;;4993666;28;20037;-72
2021/12/02 03:31:14;;;;;;;12.43;7.53;;;7.40;92.10;;;;;;4993548;28;20029;-72
2021/12/02 03:33:41;;;;;;;11.13;7.30;;;7.50;91.80;;;;;;4993732;28;20062;-72
2021/12/02 03:36:08;;;;;;;10.90;7.57;;;7.50;91.80;;;;;;4993740;28;20036;-72
2021/12/02 03:38:34;;;;;;;10.33;7.40;;;7.50;91.90;;;;;;4993454;28;20022;-72
2021/12/02 03:41:00;;;;;;;10.63;6.77;;;7.50;91.80;;;;;;4993237;28;20121;-72
2021/12/02 03:43:27;;;;;;;8.40;5.50;;;7.50;92.50;;;;;;4993787;28;20022;-72
2021/12/02 03:45:54;;;;;;;11.63;5.80;;;7.40;92.50;;;;;;4993716;28;20114;-72
2021/12/02 03:48:19;;;;;;;9.70;3.70;;;7.50;92.50;;;;;;4993446;28;20049;-72
2021/12/02 03:50:45;;;;;;;8.03;3.63;;;7.40;92.30;;;;;;4993452;28;20085;-72
2021/12/02 03:53:11;;;;;;;6.17;3.30;;;7.50;92.30;;;;;;4993592;28;20042;-72
2021/12/02 03:55:37;;;;;;;5.70;3.13;;;7.50;92.20;;;;;;4976091;28;20034;-72
2021/12/02 03:58:02;;;;;;;6.13;2.70;;;7.50;92.30;;;;;;4993652;28;20034;-72
2021/12/02 04:00:28;;;;;;;9.03;3.30;;;7.50;92.10;;;;;;4992987;28;20051;-72
2021/12/02 04:02:54;;;;;;;5.23;3.47;;;7.50;92.10;;;;;;4993512;28;20172;-73
2021/12/02 04:05:19;;;;;;;7.03;2.97;;;7.50;92.00;;;;;;4993422;28;20026;-72
2021/12/02 04:07:45;;;;;;;6.03;3.30;;;7.50;92.00;;;;;;4993152;28;20031;-72
2021/12/02 04:10:11;;;;;;;8.97;4.17;;;7.50;92.30;;;;;;4975899;28;20030;-72
2021/12/02 04:13:07;;;;;;;8.20;3.90;;;7.50;92.40;;;;;;4993268;28;20038;-72
2021/12/02 04:15:36;;;;;;;6.47;3.90;;;7.50;92.20;;;;;;4993370;28;20105;-72
2021/12/02 04:18:01;;;;;;;5.93;3.80;;;7.50;92.30;;;;;;4993195;28;20097;-72
2021/12/02 04:20:27;;;;;;;7.07;4.20;;;7.40;92.50;;;;;;4992878;28;20061;-72
2021/12/02 04:22:58;;;;;;;6.17;3.80;;;7.40;92.60;;;;;;4994064;28;20440;-72
2021/12/02 04:25:25;;;;;;;5.90;3.90;;;7.40;92.50;;;;;;4995946;28;20410;-72
2021/12/02 04:27:53;;;;;;;6.37;4.20;;;7.40;92.30;;;;;;4997175;28;20033;-72
2021/12/02 04:30:23;;;;;;;8.73;4.47;;;7.40;92.70;;;;;;4997043;28;20479;-72
2021/12/02 04:32:49;;;;;;;7.80;4.77;;;7.40;92.50;;;;;;4996696;28;20042;-72
2021/12/02 04:35:15;;;;;;;8.57;5.10;;;7.40;92.60;;;;;;4997024;28;20113;-73
2021/12/02 04:37:43;;;;;;;7.90;4.37;;;7.40;92.60;;;;;;4997046;28;20101;-72
2021/12/02 04:40:11;;;;;;;6.37;4.10;;;7.40;92.60;;;;;;4996652;28;20053;-72
2021/12/02 04:42:37;;;;;;;8.40;3.97;;;7.50;92.60;;;;;;4996991;28;20027;-72
2021/12/02 04:45:03;;;;;;;5.07;2.83;;;7.50;92.50;;;;;;4996679;28;20499;-72
2021/12/02 04:47:29;;;;;;;3.47;2.27;;;7.50;92.40;;;;;;4996645;28;20057;-72
2021/12/02 04:49:55;;;;;;;3.57;2.20;;;7.50;91.90;;;;;;4996629;28;20073;-72
2021/12/02 04:52:20;;;;;;;5.03;2.50;;;7.50;91.90;;;;;;4979232;28;20030;-72
2021/12/02 04:54:46;;;;;;;4.07;2.30;;;7.50;91.80;;;;;;4996521;28;20030;-72
2021/12/02 04:57:12;;;;;;;5.13;1.83;;;7.50;91.90;;;;;;4996515;28;20023;-72
2021/12/02 04:59:38;;;;;;;4.40;2.40;;;7.50;91.90;;;;;;4996587;28;20054;-72
2021/12/02 05:02:03;;;;;;;3.80;2.53;;;7.50;91.90;;;;;;4996535;28;20543;-72
2021/12/02 05:04:29;;;;;;;4.10;2.37;;;7.50;91.90;;;;;;4996541;28;20475;-72
2021/12/02 05:06:55;;;;;;;4.20;2.57;;;7.50;92.10;;;;;;4995019;28;20387;-72
2021/12/02 05:09:21;;;;;;;7.33;2.40;;;7.50;92.30;;;;;;4996147;28;20018;-73
2021/12/02 05:11:46;;;;;;;5.63;2.30;;;7.50;92.40;;;;;;4996223;28;20076;-72
2021/12/02 05:14:12;;;;;;;5.97;2.47;;;7.50;92.50;;;;;;4996316;28;20030;-72
2021/12/02 05:16:39;;;;;;;4.63;2.53;;;7.50;92.60;;;;;;4996069;28;20023;-72
2021/12/02 05:19:05;;;;;;;4.67;2.57;;;7.50;92.20;;;;;;4996368;28;20101;-72
2021/12/02 05:21:31;;;;;;;4.93;2.40;;;7.50;92.30;;;;;;4996249;28;20066;-72
2021/12/02 05:23:57;;;;;;;4.27;2.33;;;7.50;92.30;;;;;;4995936;28;20058;-73
2021/12/02 05:26:24;;;;;;;3.50;2.43;;;7.50;92.20;;;;;;4996218;28;20041;-72
2021/12/02 05:28:52;;;;;;;5.17;2.80;;;7.50;92.30;;;;;;4996263;28;20030;-72
2021/12/02 05:31:18;;;;;;;5.90;2.23;;;7.60;92.10;;;;;;4996283;28;20458;-72
2021/12/02 05:33:44;;;;;;;3.60;1.80;;;7.60;91.80;;;;;;4995628;28;20038;-72
2021/12/02 05:36:09;;;;;;;4.30;1.80;;;7.60;91.80;;;;;;4995700;28;20031;-72
2021/12/02 05:38:35;;;;;;;3.73;1.87;;;7.60;91.80;;;;;;4995799;28;20026;-72
2021/12/02 05:41:03;;;;;;;3.40;1.70;;;7.60;92.00;;;;;;4995845;28;20064;-72
2021/12/02 05:43:29;;;;;;;3.07;1.77;;;7.60;92.20;;;;;;4995571;28;20460;-72
2021/12/02 05:45:55;;;;;;;3.37;1.53;;;7.60;92.40;;;;;;4995710;28;20030;-72
2021/12/02 05:48:20;;;;;;;3.10;1.93;;;7.60;92.30;;;;;;4995458;28;20403;-72
2021/12/02 05:50:46;;;;;;;4.90;2.27;;;7.50;92.30;;;;;;4995413;28;20018;-71
2021/12/02 05:53:12;;;;;;;3.20;2.40;;;7.50;93.00;;;;;;4995464;28;20042;-72
2021/12/02 05:55:38;;;;;;;6.73;4.20;;;7.50;93.20;;;;;;4995386;28;20388;-72
2021/12/02 05:58:04;;;;;;;7.03;4.70;;;7.50;92.80;;;;;;4995323;28;20030;-72
2021/12/02 06:00:29;;;;;;;7.80;4.60;;;7.50;92.80;;;;;;4995306;28;20458;-72
2021/12/02 06:02:55;;;;;;;6.43;4.07;;;7.50;93.20;;;;;;4977783;28;20050;-72
2021/12/02 06:05:21;;;;;;;4.77;3.03;;;7.50;93.40;;;;;;4995216;28;20391;-72
2021/12/02 06:07:50;;;;;;;7.23;2.80;;;7.40;93.50;;;;;;4995094;28;20058;-72
2021/12/02 06:10:17;;;;;;;4.40;2.70;;;7.40;93.50;;;;;;4995283;28;20045;-72
2021/12/02 06:12:44;;;;;;;4.43;2.13;;;7.50;93.30;;;;;;4995356;28;20114;-72
2021/12/02 06:15:10;;;;;;;7.57;2.07;;;7.50;93.20;;;;;;4995230;28;20064;-72
2021/12/02 06:17:36;;;;;;;4.07;2.03;;;7.40;93.10;;;;;;4995135;28;20089;-72
2021/12/02 06:20:04;;;;;;;4.27;1.93;;;7.40;93.20;;;;;;4995072;28;20034;-72
2021/12/02 06:22:29;;;;;;;3.37;1.97;;;7.50;93.00;;;;;;4994947;28;20038;-72
2021/12/02 06:25:16;;;;;;;3.50;1.73;;;7.50;92.90;;;;;;4994950;28;20117;-72
2021/12/02 06:27:46;;;;;;;5.70;1.83;;;7.50;92.90;;;;;;4994888;28;20058;-72
2021/12/02 06:30:13;;;;;;;4.17;2.00;;;7.50;93.20;;;;;;4977455;28;20056;-72
2021/12/02 06:32:39;;;;;;;4.07;1.83;;;7.50;93.10;;;;;;4994550;28;20038;-72
2021/12/02 06:35:06;;;;;;;4.73;1.70;;;7.50;92.80;;;;;;4994697;28;20027;-72
2021/12/02 06:37:32;;;;;;;3.97;1.80;;;7.50;92.60;;;;;;4994397;28;20102;-72
2021/12/02 06:39:57;;;;;;;2.93;1.80;;;7.50;92.80;;;;;;4993308;28;20121;-72
2021/12/02 06:42:23;;;;;;;3.00;1.60;;;7.50;93.10;;;;;;4994570;28;20030;-72
2021/12/02 06:44:49;;;;;;;3.57;2.27;;;7.50;93.00;;;;;;4994457;28;20113;-72
2021/12/02 06:47:14;;;;;;;7.47;2.20;;;7.50;93.00;;;;;;4994492;28;20459;-72
2021/12/02 06:49:41;;;;;;;5.30;2.30;;;7.50;92.90;;;;;;4994413;28;20077;-72
2021/12/02 06:52:13;;;;;;;3.80;2.50;;;7.60;93.00;;;;;;4993955;28;20026;-72
2021/12/02 06:54:39;;;;;;;3.53;2.05;;;7.50;92.80;;;;;;4994296;28;20022;-72
2021/12/02 06:57:06;;;;;;;2.70;1.70;;;7.60;92.50;;;;;;4994069;28;20392;-72
2021/12/02 06:59:31;;;;;;;2.40;1.40;;;7.60;92.40;;;;;;4994401;28;20030;-72
2021/12/02 07:01:58;;;;;;;5.80;3.73;;;7.60;92.30;;;;;;4976178;28;20484;-72
2021/12/02 07:04:23;;;;;;;5.07;2.73;;;7.60;92.30;;;;;;4993206;28;20084;-72
2021/12/02 07:06:49;;;;;;;3.77;2.70;;;7.60;92.20;;;;;;4992699;28;20038;-72
2021/12/02 07:09:15;;;;;;;4.57;2.70;;;7.60;92.60;;;;;;4994295;28;20109;-71
2021/12/02 07:11:42;;;;;;;4.00;2.63;;;7.60;92.90;;;;;;4994128;28;20038;-71
2021/12/02 07:14:13;;;;;;;2.93;1.77;;;7.60;92.90;;;;;;4992853;28;20035;-72
2021/12/02 07:16:39;;;;;;;3.03;2.20;;;7.60;92.80;;;;;;4994311;28;20034;-72
2021/12/02 07:19:07;;;;;;;5.37;2.03;;;7.60;92.90;;;;;;4994215;28;20502;-71
2021/12/02 07:21:36;;;;;;;5.63;1.83;;;7.60;92.60;;;;;;4994206;28;20387;-71
2021/12/02 07:24:03;;;;;;;2.60;1.60;;;7.70;92.40;;;;;;4994122;28;20022;-72
2021/12/02 07:26:29;;;;;;;6.20;2.47;;;7.70;92.40;;;;;;4993710;28;20483;-72
2021/12/02 07:28:54;;;;;;;6.17;1.97;;;7.70;92.20;;;;;;4993715;28;20044;-71
2021/12/02 07:31:23;;;;;;;3.07;1.60;;;7.70;92.70;;;;;;4993702;28;20034;-71
2021/12/02 07:33:53;;;;;;;5.33;2.00;;;7.70;92.70;;;;;;4993622;28;20088;-72
2021/12/02 07:36:19;;;;;;;4.67;2.03;;;7.70;92.60;;;;;;4991716;28;20109;-71
2021/12/02 07:38:46;;;;;;;5.77;2.13;;;7.70;92.60;;;;;;4993219;28;20105;-71
2021/12/02 07:41:12;;;;;;;4.70;2.00;;;7.70;92.30;;;;;;4983419;28;20046;-77
2021/12/02 07:43:39;;;;;;;4.03;2.30;;;7.70;92.20;;;;;;5012905;28;20071;-78
2021/12/02 07:46:05;;;;;;;4.87;2.70;;;7.70;92.70;;;;;;5012741;28;20030;-80
2021/12/02 07:48:31;;;;;;;4.20;2.10;;;7.70;92.70;;;;;;5012608;28;20026;-75
2021/12/02 07:51:00;;;;;;;6.27;2.83;;;7.70;92.70;;;;;;5012955;28;20153;-73
2021/12/02 07:53:28;;;;;;;4.53;2.40;;;7.70;92.70;;;;;;5008034;28;20038;-71
2021/12/02 07:55:55;;;;;;;3.53;2.37;;;7.70;92.70;;;;;;4993151;28;20023;-77
2021/12/02 07:58:23;;;;;;;999.70;40.20;;;7.70;92.80;;;;;;4992988;28;20026;-78
2021/12/02 08:00:50;;;;;;;9.90;2.83;;;7.70;93.10;;;;;;4993298;28;20056;-79
2021/12/02 08:03:16;;;;;;;9.77;3.20;;;7.80;93.20;;;;;;4993327;28;20552;-81
2021/12/02 08:05:42;;;;;;;448.17;25.13;;;7.80;93.20;;;;;;4992538;28;20118;-81
2021/12/02 08:08:07;;;;;;;134.77;8.83;;;7.80;94.80;;;;;;4993403;28;20027;-83
2021/12/02 08:10:33;;;;;;;6.33;2.70;;;7.90;95.00;;;;;;4993437;28;20078;-79
2021/12/02 08:13:01;;;;;;;10.03;3.50;;;7.90;95.20;;;;;;4991231;28;20100;-72
2021/12/02 08:15:28;;;;;;;12.20;2.33;;;7.90;95.20;;;;;;4990475;28;20394;-74
2021/12/02 08:17:55;;;;;;;308.30;18.57;;;7.90;95.00;;;;;;4990416;28;20334;-80
2021/12/02 08:20:23;;;;;;;5.50;2.50;;;7.90;95.30;;;;;;4993244;28;20023;-77
2021/12/02 08:22:48;;;;;;;61.50;8.80;;;8.00;94.90;;;;;;4993493;28;20026;-81
2021/12/02 08:25:15;;;;;;;18.90;3.57;;;7.90;94.40;;;;;;4993313;28;20031;-82
2021/12/02 08:27:41;;;;;;;47.37;4.87;;;8.00;95.10;;;;;;4993412;28;20399;-78
2021/12/02 08:30:11;;;;;;;33.40;4.03;;;8.00;94.90;;;;;;4992875;28;20449;-82
2021/12/02 08:32:39;;;;;;;8.13;3.50;;;7.90;94.70;;;;;;4993457;28;20042;-78
2021/12/02 08:35:05;;;;;;;6.97;3.57;;;8.00;94.40;;;;;;4993223;28;20037;-75
2021/12/02 08:37:35;;;;;;;27.17;3.30;;;8.00;94.00;;;;;;4993138;28;20034;-82
2021/12/02 08:40:01;;;;;;;10.27;3.03;;;8.00;93.80;;;;;;4993197;28;20538;-80
2021/12/02 08:42:31;;;;;;;5.97;1.73;;;8.00;94.40;;;;;;4993250;28;20034;-81
2021/12/02 08:44:57;;;;;;;3.30;2.03;;;8.00;94.40;;;;;;4993057;28;20084;-76
2021/12/02 08:47:24;;;;;;;4.87;2.03;;;8.00;94.20;;;;;;4991752;28;20485;-77
2021/12/02 08:49:54;;;;;;;5.00;2.30;;;8.00;94.00;;;;;;4992231;28;20022;-78
2021/12/02 08:52:24;;;;;;;89.70;5.77;;;8.00;94.00;;;;;;4992783;28;20149;-77
2021/12/02 08:54:51;;;;;;;3.30;2.30;;;8.00;93.80;;;;;;4993545;28;20030;-78
2021/12/02 08:57:21;;;;;;;6.60;2.37;;;8.00;93.60;;;;;;4993242;28;20356;-80
2021/12/02 08:59:48;;;;;;;5.97;1.90;;;8.00;93.50;;;;;;4993155;28;20109;-81
2021/12/02 09:02:15;;;;;;;2.93;2.30;;;8.10;93.90;;;;;;4992815;28;20051;-80
2021/12/02 09:04:41;;;;;;;8.87;3.20;;;8.00;93.90;;;;;;4993215;28;20022;-79
2021/12/02 09:07:07;;;;;;;9.77;6.03;;;8.00;94.20;;;;;;4993283;28;20509;-79
2021/12/02 09:09:32;;;;;;;7.20;4.70;;;8.00;94.30;;;;;;4995001;28;20097;-79
2021/12/02 09:11:59;;;;;;;10.70;5.10;;;8.00;94.60;;;;;;4996637;28;20545;-83
2021/12/02 09:14:25;;;;;;;29.00;6.17;;;8.00;94.60;;;;;;4997316;28;20041;-79
2021/12/02 09:16:51;;;;;;;5.63;3.83;;;8.00;94.70;;;;;;4996688;28;20022;-82
2021/12/02 09:19:18;;;;;;;5.50;3.87;;;8.00;94.80;;;;;;4996429;28;20056;-83
2021/12/02 09:21:44;;;;;;;7.57;3.90;;;8.00;94.70;;;;;;4996342;28;20081;-82
2021/12/02 09:24:13;;;;;;;6.97;4.17;;;8.00;94.40;;;;;;4996974;28;20019;-82
2021/12/02 09:26:40;;;;;;;5.53;3.63;;;8.10;94.20;;;;;;4996455;28;20105;-84
2021/12/02 09:29:06;;;;;;;6.17;3.90;;;8.10;94.00;;;;;;4996035;28;20034;-83
2021/12/02 09:31:32;;;;;;;9.93;4.30;;;8.10;93.70;;;;;;4996143;28;20022;-81
2021/12/02 09:33:58;;;;;;;7.47;4.53;;;8.10;93.50;;;;;;4996175;28;20038;-80
2021/12/02 09:36:24;;;;;;;12.60;5.53;;;8.10;93.30;;;;;;4994894;28;20023;-80
2021/12/02 09:38:49;;;;;;;9.67;4.57;;;8.10;93.10;;;;;;4994910;28;20034;-82
2021/12/02 09:41:15;;;;;;;9.03;3.93;;;8.10;93.10;;;;;;4996306;28;20022;-76
2021/12/02 09:43:42;;;;;;;4.50;3.40;;;8.10;93.00;;;;;;4995571;28;20034;-80
2021/12/02 09:46:08;;;;;;;7.40;4.07;;;8.10;92.80;;;;;;4996229;28;20034;-78
2021/12/02 09:48:35;;;;;;;4.90;2.83;;;8.10;92.70;;;;;;4995959;28;20054;-81
2021/12/02 09:51:12;;;;;;;5.83;2.87;;;8.10;92.60;;;;;;4995996;28;20073;-82
2021/12/02 09:53:57;;;;;;;4.97;2.83;;;8.20;92.60;;;;;;4995606;28;20402;-81
2021/12/02 09:56:28;;;;;;;3.63;2.70;;;8.20;92.50;;;;;;4995735;28;20018;-82
2021/12/02 09:58:57;;;;;;;6.20;2.90;;;8.20;92.70;;;;;;4995663;28;20108;-81
2021/12/02 10:01:30;;;;;;;10.20;6.90;;;8.20;92.80;;;;;;4995378;28;20493;-77
2021/12/02 10:04:01;;;;;;;11.77;5.70;;;8.20;93.50;;;;;;4995951;28;20054;-75
2021/12/02 10:06:32;;;;;;;10.10;5.87;;;8.20;93.90;;;;;;4995886;28;20018;-78
2021/12/02 10:09:12;;;;;;;7.57;5.30;;;8.20;94.10;;;;;;4993311;28;20030;-77
2021/12/02 10:11:50;;;;;;;10.53;5.43;;;8.20;94.10;;;;;;4992849;28;20483;-81
2021/12/02 10:14:33;;;;;;;8.70;5.30;;;8.20;94.30;;;;;;4994446;28;20446;-75
2021/12/02 10:17:31;;;;;;;7.60;6.10;;;8.10;94.10;;;;;;4995620;28;20061;-77
2021/12/02 10:21:06;;;;;;;7.07;5.53;;;8.20;93.80;;;;;;4994767;28;20046;-79
2021/12/02 10:23:43;;;;;;;11.03;5.37;;;8.20;93.50;;;;;;4971594;28;20064;-76
2021/12/02 10:26:09;;;;;;;8.10;5.20;;;8.20;93.30;;;;;;4995441;28;20037;-79
2021/12/02 10:28:42;;;;;;;5.87;4.17;;;8.30;93.20;;;;;;4995316;28;20101;-75
2021/12/02 10:31:10;;;;;;;6.87;4.67;;;8.30;93.00;;;;;;4995196;28;20110;-78
2021/12/02 10:33:49;;;;;;;7.10;3.40;;;8.30;92.80;;;;;;4995224;28;20476;-79
2021/12/02 10:36:23;;;;;;;4.33;3.10;;;8.30;92.80;;;;;;4995287;28;20034;-80
2021/12/02 10:38:49;;;;;;;4.43;2.90;;;8.40;92.60;;;;;;4995136;28;20041;-81
2021/12/02 10:41:21;;;;;;;3.67;2.57;;;8.40;92.50;;;;;;4995044;28;20395;-84
2021/12/02 10:44:15;;;;;;;3.75;2.40;;;8.30;92.60;;;;;;4995066;28;20056;-76
2021/12/02 10:47:16;;;;;;;4.00;2.63;;;8.30;92.50;;;;;;4994981;28;20026;-78
2021/12/02 10:49:49;;;;;;;7.43;2.50;;;8.30;92.50;;;;;;4991708;28;20031;-75
2021/12/02 10:52:31;;;;;;;6.73;3.03;;;8.40;92.70;;;;;;4994917;28;20106;-76
2021/12/02 10:55:01;;;;;;;3.70;2.80;;;8.40;92.50;;;;;;4994989;28;20033;-77
2021/12/02 10:57:28;;;;;;;5.60;2.53;;;8.40;92.40;;;;;;4994747;28;20022;-79
2021/12/02 10:59:58;;;;;;;4.17;2.50;;;8.40;92.40;;;;;;4994579;28;20084;-76
2021/12/02 11:02:30;;;;;;;3.90;2.07;;;8.40;92.50;;;;;;4994738;28;20014;-81
2021/12/02 11:04:59;;;;;;;5.32;2.30;;;8.50;92.50;;;;;;4994576;28;20498;-76
2021/12/02 11:07:39;;;;;;;2.80;2.10;;;8.40;92.50;;;;;;4994457;28;20053;-77
2021/12/02 11:10:09;;;;;;;3.50;2.10;;;8.50;92.60;;;;;;4994180;28;20072;-76
2021/12/02 11:12:43;;;;;;;3.90;1.70;;;8.50;92.50;;;;;;4994434;28;20041;-75
2021/12/02 11:15:13;;;;;;;6.33;2.30;;;8.50;92.60;;;;;;4994258;28;20490;-75
2021/12/02 11:17:48;;;;;;;4.57;2.00;;;8.50;92.80;;;;;;4976780;28;20486;-79
2021/12/02 11:20:28;;;;;;;5.60;2.23;;;8.50;92.70;;;;;;4994320;28;20455;-84
2021/12/02 11:23:14;;;;;;;6.37;2.87;;;8.50;92.70;;;;;;4994234;28;20440;-77
2021/12/02 11:25:53;;;;;;;6.67;2.80;;;8.50;92.60;;;;;;4993447;28;20480;-75
2021/12/02 11:28:22;;;;;;;5.63;2.60;;;8.50;92.60;;;;;;4994077;28;20030;-75
2021/12/02 11:30:48;;;;;;;6.20;3.03;;;8.50;92.50;;;;;;4993690;28;20057;-75
2021/12/02 11:33:18;;;;;;;5.87;3.10;;;8.50;92.40;;;;;;4993771;28;20483;-76
2021/12/02 11:35:45;;;;;;;4.87;2.50;;;8.50;92.40;;;;;;4994016;28;20022;-74
2021/12/02 11:38:21;;;;;;;5.37;3.20;;;8.60;92.30;;;;;;4994014;28;20030;-75
2021/12/02 11:40:57;;;;;;;7.60;2.53;;;8.50;92.30;;;;;;4994011;28;20414;-75
2021/12/02 11:43:25;;;;;;;5.53;2.63;;;8.60;92.40;;;;;;4993587;28;20498;-74
2021/12/02 11:45:54;;;;;;;3.83;2.87;;;8.60;92.30;;;;;;4993710;28;20026;-75
2021/12/02 11:48:22;;;;;;;4.07;3.07;;;8.60;92.40;;;;;;4993769;28;20515;-74
2021/12/02 11:50:50;;;;;;;3.20;2.50;;;8.60;92.40;;;;;;4992314;28;20402;-73
2021/12/02 11:53:21;;;;;;;4.00;2.40;;;8.60;92.40;;;;;;4992140;28;20121;-75
2021/12/02 11:55:49;;;;;;;5.20;3.30;;;8.60;92.40;;;;;;4989994;28;20442;-75
2021/12/02 11:58:14;;;;;;;4.10;2.50;;;8.60;92.30;;;;;;4992344;28;20022;-75
2021/12/02 12:00:43;;;;;;;2.43;1.93;;;8.60;92.30;;;;;;4992026;28;20061;-74
2021/12/02 12:03:12;;;;;;;4.80;1.90;;;8.60;92.20;;;;;;4990279;28;20038;-75
2021/12/02 12:05:46;;;;;;;4.00;2.17;;;8.60;92.20;;;;;;4992501;28;20022;-75
2021/12/02 12:08:32;;;;;;;4.83;2.17;;;8.60;92.30;;;;;;4991505;28;20022;-75
2021/12/02 12:10:58;;;;;;;4.33;2.10;;;8.60;92.30;;;;;;4992778;28;20034;-74
2021/12/02 12:13:24;;;;;;;3.83;2.50;;;8.60;92.30;;;;;;4993265;28;20108;-76
2021/12/02 12:15:55;;;;;;;3.20;2.43;;;8.60;92.40;;;;;;4993436;28;20022;-75
2021/12/02 12:18:26;;;;;;;5.70;2.50;;;8.70;92.50;;;;;;4993494;28;20022;-75
2021/12/02 12:21:08;;;;;;;4.63;3.03;;;8.60;92.40;;;;;;4993199;28;20038;-78
2021/12/02 12:23:45;;;;;;;3.77;2.77;;;8.60;92.40;;;;;;4993447;28;20549;-76
2021/12/02 12:26:18;;;;;;;4.07;2.60;;;8.60;92.30;;;;;;4993502;28;20304;-76
2021/12/02 12:29:06;;;;;;;4.00;3.23;;;8.70;92.30;;;;;;4991558;28;20511;-78
2021/12/02 12:31:35;;;;;;;5.87;4.10;;;8.70;92.20;;;;;;4992961;28;20104;-79
2021/12/02 12:34:18;;;;;;;7.30;4.30;;;8.70;92.20;;;;;;4997084;28;20030;-79
2021/12/02 12:36:46;;;;;;;7.10;3.93;;;8.60;92.20;;;;;;5012208;28;20026;-76
2021/12/02 12:39:23;;;;;;;4.73;3.80;;;8.60;92.40;;;;;;5012836;28;20101;-75
2021/12/02 12:42:21;;;;;;;5.50;4.30;;;8.60;92.50;;;;;;5012722;28;20459;-74
2021/12/02 12:44:56;;;;;;;6.63;4.90;;;8.60;92.50;;;;;;4966265;28;20483;-76
2021/12/02 12:47:47;;;;;;;6.40;5.03;;;8.70;92.50;;;;;;4996669;28;20475;-74
2021/12/02 12:50:30;;;;;;;8.27;6.07;;;8.70;92.40;;;;;;4977094;28;20026;-75
2021/12/02 12:53:05;;;;;;;8.05;5.60;;;8.70;92.50;;;;;;4977225;28;20043;-76
2021/12/02 12:55:31;;;;;;;8.27;5.00;;;8.60;92.50;;;;;;4977125;28;20423;-74
2021/12/02 12:58:07;;;;;;;6.13;4.27;;;8.60;92.60;;;;;;4976791;28;20085;-74
2021/12/02 13:00:47;;;;;;;7.37;4.07;;;8.70;92.60;;;;;;4973731;28;20053;-75
2021/12/02 13:03:17;;;;;;;10.33;3.90;;;8.60;92.50;;;;;;4974292;28;20035;-76
2021/12/02 13:05:55;;;;;;;11.63;4.27;;;8.60;92.40;;;;;;4975183;28;20472;-75
2021/12/02 13:08:23;;;;;;;5.53;3.77;;;8.60;92.40;;;;;;4976402;28;20108;-74
2021/12/02 13:10:49;;;;;;;4.80;3.43;;;8.60;92.50;;;;;;4978673;28;20019;-77
2021/12/02 13:13:33;;;;;;;8.10;4.17;;;8.60;92.40;;;;;;4994835;28;20045;-77
2021/12/02 13:16:11;;;;;;;7.57;4.37;;;8.60;92.40;;;;;;4976388;28;20375;-77
2021/12/02 13:18:39;;;;;;;7.40;4.73;;;8.60;92.50;;;;;;4986479;28;20038;-76